Time;durP1;ratioP1;P1;durP2;ratioP2;P2;SDS_P1;SDS_P2;PMS_P1;PMS_P2;Temp;Humidity;BMP_temperature;BMP_pressure;BME280_temperature;BME280_humidity;BME280_pressure;Samples;Min_cycle;Max_cycle;Signal;HPM_P1;HPM_P2
2023/11/19 00:01:33;;;;;;;0.50;0.50;;;;;;;-145.69;63.54;52278.03;5113233;28;20609;-80
2023/11/19 00:03:59;;;;;;;0.38;0.38;;;;;;;-145.69;63.36;52301.81;5112912;28;20545;-80
2023/11/19 00:06:26;;;;;;;0.60;0.50;;;;;;;-145.69;63.61;52293.88;5113021;28;20201;-80
2023/11/19 00:08:53;;;;;;;0.40;0.40;;;;;;;-145.69;63.42;52268.13;5109789;28;20289;-80
2023/11/19 00:11:19;;;;;;;0.60;0.47;;;;;;;-145.69;63.33;52303.78;5112903;28;20231;-80
2023/11/19 00:13:47;;;;;;;0.50;0.50;;;;;;;-145.69;63.76;52293.88;5112835;28;20198;-80
2023/11/19 00:16:14;;;;;;;1.10;0.50;;;;;;;-145.69;63.54;52305.75;5113038;28;20197;-80
2023/11/19 00:18:40;;;;;;;0.50;0.50;;;;;;;-145.69;63.10;52317.66;5113071;28;20204;-80
2023/11/19 00:21:08;;;;;;;0.70;0.40;;;;;;;-145.69;63.61;52270.13;5112534;28;20193;-80
2023/11/19 00:23:35;;;;;;;1.38;0.40;;;;;;;-145.69;63.91;52276.06;5112648;28;20251;-80
2023/11/19 00:26:02;;;;;;;0.32;0.32;;;;;;;-145.69;64.04;52276.06;5112810;28;20725;-80
2023/11/19 00:28:28;;;;;;;0.50;0.50;;;;;;;-145.69;64.40;52305.75;5112835;28;20648;-80
2023/11/19 00:30:58;;;;;;;0.47;0.47;;;;;;;-145.69;63.87;52250.31;5112958;28;20229;-80
2023/11/19 00:33:25;;;;;;;0.40;0.40;;;;;;;-145.69;65.12;52272.09;5113128;28;20204;-80
2023/11/19 00:35:51;;;;;;;1.17;0.55;;;;;;;-145.69;65.38;52285.97;5112947;28;20229;-81
2023/11/19 00:38:18;;;;;;;0.40;0.40;;;;;;;-145.69;65.66;52317.66;5112838;28;20202;-80
2023/11/19 00:40:45;;;;;;;0.55;0.55;;;;;;;-145.69;65.29;52266.16;5112708;28;20564;-79
2023/11/19 00:43:11;;;;;;;0.40;0.40;;;;;;;-145.69;65.36;52282.00;5113000;28;20201;-80
2023/11/19 00:45:38;;;;;;;0.30;0.30;;;;;;;-145.69;65.08;52309.72;5112969;28;20292;-80
2023/11/19 00:48:06;;;;;;;0.40;0.40;;;;;;;-145.69;65.48;52252.28;5112735;28;20201;-80
2023/11/19 00:50:33;;;;;;;0.40;0.40;;;;;;;-145.69;65.88;52303.78;5112406;28;20257;-80
2023/11/19 00:52:59;;;;;;;0.40;0.40;;;;;;;-145.69;66.68;52283.97;5112592;28;20220;-79
2023/11/19 00:55:26;;;;;;;0.40;0.40;;;;;;;-145.69;66.63;52274.06;5112644;28;20197;-80
2023/11/19 00:57:52;;;;;;;0.40;0.40;;;;;;;-145.69;65.70;52321.59;5112870;28;20197;-79
2023/11/19 01:00:19;;;;;;;0.60;0.60;;;;;;;-145.69;66.18;52331.50;5113099;28;20201;-80
2023/11/19 01:02:46;;;;;;;0.40;0.40;;;;;;;-145.69;65.98;52301.81;5112649;28;20200;-80
2023/11/19 01:05:15;;;;;;;0.40;0.40;;;;;;;-145.69;65.96;52278.03;5112537;28;20198;-80
2023/11/19 01:07:41;;;;;;;0.40;0.40;;;;;;;-145.69;65.71;52319.63;5112407;28;20241;-79
2023/11/19 01:10:08;;;;;;;0.30;0.30;;;;;;;-145.69;65.71;52297.84;5112325;28;20278;-79
2023/11/19 01:12:35;;;;;;;0.40;0.40;;;;;;;-145.69;66.18;52274.06;5114522;28;20213;-79
2023/11/19 01:15:01;;;;;;;0.43;0.40;;;;;;;-145.69;66.31;52325.56;5115720;28;20201;-79
2023/11/19 01:17:28;;;;;;;0.50;0.40;;;;;;;-145.69;66.54;52282.00;5115547;28;20197;-79
2023/11/19 01:19:54;;;;;;;1.88;0.40;;;;;;;-145.69;66.60;52301.81;5115579;28;20201;-80
2023/11/19 01:22:23;;;;;;;0.68;0.35;;;;;;;-145.69;66.30;52287.94;5116013;28;20194;-79
2023/11/19 01:24:49;;;;;;;0.40;0.40;;;;;;;-145.69;66.56;52297.84;5116134;28;20201;-80
2023/11/19 01:27:16;;;;;;;0.60;0.57;;;;;;;-145.69;67.24;52329.53;5116141;28;20251;-79
2023/11/19 01:29:42;;;;;;;0.40;0.40;;;;;;;-145.69;67.24;52268.13;5115920;28;20288;-79
2023/11/19 01:32:09;;;;;;;0.47;0.47;;;;;;;-145.69;66.41;52280.00;5115388;28;20267;-79
2023/11/19 01:34:35;;;;;;;0.47;0.40;;;;;;;-145.69;66.38;52297.84;5115703;28;20660;-79
2023/11/19 01:37:02;;;;;;;0.30;0.30;;;;;;;-145.69;67.10;52313.69;5115930;28;20209;-79
2023/11/19 01:39:30;;;;;;;0.80;0.50;;;;;;;-145.69;67.30;52285.97;5115458;28;20194;-80
2023/11/19 01:41:55;;;;;;;0.47;0.47;;;;;;;-145.69;67.60;52293.88;5115619;28;20208;-80
2023/11/19 01:44:22;;;;;;;0.35;0.35;;;;;;;-145.69;67.80;52309.72;5115684;28;20201;-80
2023/11/19 01:46:49;;;;;;;0.40;0.40;;;;;;;-145.69;67.72;52293.88;5115432;28;20580;-80
2023/11/19 01:49:16;;;;;;;0.63;0.47;;;;;;;-145.69;67.80;52291.91;5115454;28;20193;-80
2023/11/19 01:51:43;;;;;;;0.32;0.32;;;;;;;-145.69;68.56;52270.13;5115168;28;20217;-80
2023/11/19 01:54:10;;;;;;;0.35;0.35;;;;;;;-145.69;68.27;52293.88;5115535;28;20212;-79
2023/11/19 01:56:40;;;;;;;0.40;0.40;;;;;;;-145.69;68.52;52285.97;5115466;28;20228;-79
2023/11/19 01:59:09;;;;;;;0.40;0.40;;;;;;;-145.69;68.69;52297.84;5115343;28;20201;-80
2023/11/19 02:01:39;;;;;;;0.38;0.30;;;;;;;-145.69;69.44;52262.19;5115205;28;20250;-79
2023/11/19 02:04:06;;;;;;;2.92;0.45;;;;;;;-145.69;69.48;52289.91;5115242;28;20205;-79
2023/11/19 02:06:35;;;;;;;0.50;0.45;;;;;;;-145.69;68.77;52303.78;5115069;27;20227;-80
2023/11/19 02:09:07;;;;;;;0.40;0.40;;;;;;;-145.69;68.72;52313.69;5115321;28;20207;-80
2023/11/19 02:11:34;;;;;;;2.65;0.47;;;;;;;-145.69;68.40;52297.84;5115087;28;20256;-79
2023/11/19 02:14:03;;;;;;;0.73;0.30;;;;;;;-145.69;68.62;52264.16;5096874;28;20603;-79
2023/11/19 02:16:30;;;;;;;0.20;0.20;;;;;;;-145.69;68.42;52262.19;5094635;28;20209;-80
2023/11/19 02:18:56;;;;;;;0.50;0.50;;;;;;;-145.69;68.93;52270.13;5101167;28;20193;-80
2023/11/19 02:21:22;;;;;;;0.40;0.40;;;;;;;-145.69;68.49;52278.03;5115093;28;20207;-80
2023/11/19 02:23:49;;;;;;;0.40;0.40;;;;;;;-145.69;68.29;52282.00;5113756;28;20199;-79
2023/11/19 02:26:22;;;;;;;0.50;0.50;;;;;;;-145.69;68.16;52285.97;5114916;28;20568;-79
2023/11/19 02:28:50;;;;;;;0.30;0.30;;;;;;;-145.69;68.59;52238.44;5114746;28;20204;-80
2023/11/19 02:31:17;;;;;;;2.17;0.50;;;;;;;-145.69;68.22;52250.31;5114852;28;20225;-80
2023/11/19 02:33:43;;;;;;;1.05;0.40;;;;;;;-145.69;68.51;52250.31;5114714;28;20598;-80
2023/11/19 02:36:10;;;;;;;0.40;0.40;;;;;;;-145.69;69.09;52309.72;5114851;27;20205;-79
2023/11/19 02:38:38;;;;;;;1.83;0.30;;;;;;;-145.69;68.87;52289.91;5114513;28;20193;-80
2023/11/19 02:41:05;;;;;;;0.40;0.40;;;;;;;-145.69;68.45;52274.06;5114111;28;20198;-80
2023/11/19 02:43:33;;;;;;;1.52;0.57;;;;;;;-145.69;68.12;52260.22;5113934;28;20204;-80
2023/11/19 02:46:01;;;;;;;2.55;0.50;;;;;;;-145.69;68.30;52262.19;5114038;28;20194;-79
2023/11/19 02:48:27;;;;;;;0.50;0.50;;;;;;;-145.69;68.65;52283.97;5114374;28;20197;-79
2023/11/19 02:50:54;;;;;;;0.40;0.40;;;;;;;-145.69;68.82;52264.16;5114085;28;20201;-79
2023/11/19 02:53:22;;;;;;;0.47;0.47;;;;;;;-145.69;68.29;52297.84;5114212;28;20209;-80
2023/11/19 02:55:49;;;;;;;0.60;0.60;;;;;;;-145.69;68.92;52270.13;5113858;28;20560;-79
2023/11/19 02:58:23;;;;;;;0.40;0.40;;;;;;;-145.69;68.56;52289.91;5114247;28;20296;-80
2023/11/19 03:00:56;;;;;;;0.30;0.30;;;;;;;-145.69;68.92;52349.31;5114220;28;20209;-80
2023/11/19 03:03:28;;;;;;;0.85;0.60;;;;;;;-145.69;68.65;52264.16;5113998;28;20233;-79
2023/11/19 03:05:55;;;;;;;0.40;0.40;;;;;;;-145.69;68.32;52315.66;5114007;28;20205;-79
2023/11/19 03:08:22;;;;;;;0.35;0.35;;;;;;;-145.69;68.64;52283.97;5113643;28;20229;-79
2023/11/19 03:10:49;;;;;;;0.40;0.40;;;;;;;-145.69;67.91;52301.81;5113897;28;20221;-79
2023/11/19 03:13:16;;;;;;;0.52;0.47;;;;;;;-145.69;66.43;52260.22;5113811;28;20269;-79
2023/11/19 03:15:43;;;;;;;0.40;0.40;;;;;;;-145.69;67.94;52278.03;5113791;28;20198;-79
2023/11/19 03:18:10;;;;;;;0.52;0.52;;;;;;;-145.69;67.79;52315.66;5113735;28;20650;-79
2023/11/19 03:20:38;;;;;;;0.40;0.35;;;;;;;-145.69;68.80;52307.75;5113488;28;20599;-79
2023/11/19 03:23:06;;;;;;;0.35;0.35;;;;;;;-145.69;68.03;52262.19;5113997;28;20212;-80
2023/11/19 03:25:34;;;;;;;0.30;0.30;;;;;;;-145.69;68.00;52285.97;5113817;28;20197;-79
2023/11/19 03:28:01;;;;;;;0.85;0.30;;;;;;;-145.69;68.22;52289.91;5113747;28;20205;-79
2023/11/19 03:30:29;;;;;;;0.40;0.40;;;;;;;-145.69;68.44;52272.09;5113239;28;20627;-79
2023/11/19 03:32:55;;;;;;;0.40;0.40;;;;;;;-145.69;68.67;52276.06;5113726;28;20228;-79
2023/11/19 03:35:22;;;;;;;0.40;0.40;;;;;;;-145.69;68.37;52268.13;5113366;28;20682;-80
2023/11/19 03:37:50;;;;;;;0.90;0.40;;;;;;;-145.69;68.22;52283.97;5112886;28;20190;-80
2023/11/19 03:40:18;;;;;;;0.40;0.40;;;;;;;-145.69;68.52;52276.06;5113483;28;20205;-79
2023/11/19 03:42:45;;;;;;;0.32;0.30;;;;;;;-145.69;68.25;52258.22;5113519;28;20291;-79
2023/11/19 03:45:12;;;;;;;0.40;0.40;;;;;;;-145.69;66.66;52250.31;5112962;28;20196;-79
2023/11/19 03:47:38;;;;;;;0.63;0.57;;;;;;;-145.69;65.94;52276.06;5112994;28;20317;-80
2023/11/19 03:50:07;;;;;;;0.65;0.30;;;;;;;-145.69;67.10;52291.91;5113355;28;20198;-80
2023/11/19 03:52:33;;;;;;;0.30;0.30;;;;;;;-145.69;66.79;52280.00;5113205;28;20236;-80
2023/11/19 03:55:02;;;;;;;0.50;0.50;;;;;;;-145.69;67.18;52266.16;5113433;28;20288;-79
2023/11/19 03:57:29;;;;;;;0.65;0.65;;;;;;;-145.69;67.38;52248.34;5113282;28;20284;-79
2023/11/19 03:59:55;;;;;;;0.73;0.60;;;;;;;-145.69;67.28;52289.91;5113168;28;20197;-79
2023/11/19 04:02:22;;;;;;;0.50;0.50;;;;;;;-145.69;66.36;52240.41;5113015;28;20228;-79
2023/11/19 04:04:48;;;;;;;0.52;0.40;;;;;;;-145.69;65.97;52244.38;5113062;28;20684;-79
2023/11/19 04:07:15;;;;;;;0.38;0.30;;;;;;;-145.69;65.06;52276.06;5113073;28;20221;-80
2023/11/19 04:09:41;;;;;;;0.40;0.40;;;;;;;-145.69;66.90;52256.25;5112735;28;20351;-80
2023/11/19 04:12:10;;;;;;;0.40;0.40;;;;;;;-145.69;65.83;52268.13;5112946;28;20618;-79
2023/11/19 04:14:37;;;;;;;0.43;0.43;;;;;;;-145.69;65.59;52270.13;5113004;28;20197;-80
2023/11/19 04:17:04;;;;;;;0.20;0.20;;;;;;;-145.69;65.98;52280.00;5113534;28;20202;-79
2023/11/19 04:19:32;;;;;;;0.40;0.40;;;;;;;-145.69;67.39;52268.13;5104526;28;20284;-79
2023/11/19 04:21:59;;;;;;;0.32;0.30;;;;;;;-145.69;67.46;52260.22;5092664;28;20200;-79
2023/11/19 04:24:25;;;;;;;0.98;0.30;;;;;;;-145.69;67.92;52297.84;5092836;28;20301;-80
2023/11/19 04:26:52;;;;;;;0.38;0.38;;;;;;;-145.69;66.93;52262.19;5092650;28;20198;-79
2023/11/19 04:29:20;;;;;;;0.30;0.30;;;;;;;-145.69;66.78;52246.34;5092218;28;20652;-79
2023/11/19 04:31:46;;;;;;;0.30;0.30;;;;;;;-145.69;66.83;52250.31;5099385;28;20253;-79
2023/11/19 04:34:13;;;;;;;0.40;0.40;;;;;;;-145.69;67.38;52256.25;5113246;28;20202;-80
2023/11/19 04:36:40;;;;;;;0.40;0.40;;;;;;;-145.69;67.05;52274.06;5112403;28;20197;-79
2023/11/19 04:39:09;;;;;;;0.30;0.30;;;;;;;-145.69;66.62;52274.06;5112936;28;20202;-79
2023/11/19 04:41:36;;;;;;;0.40;0.40;;;;;;;-145.69;66.56;52272.09;5112889;28;20197;-79
2023/11/19 04:44:02;;;;;;;0.30;0.30;;;;;;;-145.69;66.84;52268.13;5112502;28;20319;-79
2023/11/19 04:46:30;;;;;;;0.38;0.38;;;;;;;-145.69;67.01;52282.00;5113802;28;20197;-79
2023/11/19 04:48:56;;;;;;;0.45;0.40;;;;;;;-145.69;66.78;52278.03;5116835;28;20221;-80
2023/11/19 04:51:23;;;;;;;0.43;0.43;;;;;;;-145.69;67.22;52258.22;5116319;28;20209;-79
2023/11/19 04:53:49;;;;;;;0.40;0.40;;;;;;;-145.69;66.58;52270.13;5116584;28;20208;-79
2023/11/19 04:56:19;;;;;;;0.40;0.40;;;;;;;-145.69;65.08;52250.31;5116605;28;20205;-79
2023/11/19 04:58:46;;;;;;;1.13;0.45;;;;;;;-145.69;65.33;52282.00;5116410;28;20648;-79
2023/11/19 05:01:15;;;;;;;0.40;0.40;;;;;;;-145.69;65.40;52246.34;5115939;28;20201;-78
2023/11/19 05:03:43;;;;;;;0.30;0.30;;;;;;;-145.69;65.82;52250.31;5116195;28;20208;-79
2023/11/19 05:06:09;;;;;;;0.40;0.40;;;;;;;-145.69;65.93;52232.50;5116509;28;20197;-79
2023/11/19 05:08:37;;;;;;;0.30;0.30;;;;;;;-145.69;66.56;52270.13;5116228;28;20241;-79
2023/11/19 05:11:03;;;;;;;0.40;0.40;;;;;;;-145.69;66.94;52244.38;5116150;28;20201;-79
2023/11/19 05:13:30;;;;;;;0.25;0.25;;;;;;;-145.69;66.48;52262.19;5116260;28;20221;-78
2023/11/19 05:15:57;;;;;;;1.42;0.45;;;;;;;-145.69;66.48;52266.16;5116414;28;20201;-79
2023/11/19 05:18:24;;;;;;;0.40;0.40;;;;;;;-145.69;66.48;52293.88;5115965;28;20201;-79
2023/11/19 05:20:52;;;;;;;0.40;0.40;;;;;;;-145.69;65.73;52291.91;5116113;28;20217;-79
2023/11/19 05:23:18;;;;;;;0.40;0.40;;;;;;;-145.69;64.89;52262.19;5116171;28;20202;-78
2023/11/19 05:25:45;;;;;;;0.40;0.40;;;;;;;-145.69;65.36;52238.44;5115988;28;20206;-79
2023/11/19 05:28:15;;;;;;;0.32;0.32;;;;;;;-145.69;64.43;52278.03;5115625;28;20236;-79
2023/11/19 05:30:41;;;;;;;0.30;0.30;;;;;;;-145.69;65.31;52285.97;5095157;28;20205;-79
2023/11/19 05:33:08;;;;;;;0.38;0.38;;;;;;;-145.69;65.24;52283.97;5112393;28;20232;-79
2023/11/19 05:35:35;;;;;;;0.40;0.40;;;;;;;-145.69;65.48;52278.03;5115763;28;20258;-79
2023/11/19 05:38:03;;;;;;;0.40;0.40;;;;;;;-145.69;64.74;52276.06;5115068;28;20194;-79
2023/11/19 05:40:29;;;;;;;0.40;0.40;;;;;;;-145.69;65.38;52278.03;5115618;28;20266;-79
2023/11/19 05:42:56;;;;;;;0.40;0.40;;;;;;;-145.69;65.71;52270.13;5115769;28;20205;-79
2023/11/19 05:45:22;;;;;;;0.30;0.30;;;;;;;-145.69;65.79;52283.97;5115528;28;20206;-79
2023/11/19 05:47:49;;;;;;;0.55;0.47;;;;;;;-145.69;65.78;52280.00;5115577;28;20197;-79
2023/11/19 05:50:15;;;;;;;0.40;0.40;;;;;;;-145.69;66.28;52276.06;5115558;28;20303;-79
2023/11/19 05:52:42;;;;;;;0.40;0.40;;;;;;;-145.69;65.37;52272.09;5115233;28;20228;-79
2023/11/19 05:55:10;;;;;;;0.45;0.45;;;;;;;-145.69;65.79;52266.16;5115237;28;20626;-79
2023/11/19 05:57:37;;;;;;;0.30;0.30;;;;;;;-145.69;65.92;52254.28;5115231;28;20260;-79
2023/11/19 06:00:06;;;;;;;0.40;0.40;;;;;;;-145.69;66.31;52268.13;5115354;28;20201;-79
2023/11/19 06:02:33;;;;;;;0.30;0.30;;;;;;;-145.69;66.11;52278.03;5114983;28;20251;-79
2023/11/19 06:05:00;;;;;;;0.30;0.30;;;;;;;-145.69;66.22;52287.94;5114901;28;20197;-79
2023/11/19 06:07:26;;;;;;;1.50;0.40;;;;;;;-145.69;66.51;52272.09;5114795;28;20225;-79
2023/11/19 06:09:53;;;;;;;0.50;0.50;;;;;;;-145.69;67.19;52258.22;5115339;27;20193;-79
2023/11/19 06:12:21;;;;;;;0.40;0.40;;;;;;;-145.69;67.34;52248.34;5115303;28;20228;-79
2023/11/19 06:14:47;;;;;;;0.40;0.40;;;;;;;-145.69;67.52;52287.94;5114649;28;20198;-79
2023/11/19 06:17:14;;;;;;;2.15;0.40;;;;;;;-145.69;66.82;52289.91;5114836;28;20660;-79
2023/11/19 06:19:40;;;;;;;0.60;0.55;;;;;;;-145.69;67.11;52258.22;5114917;28;20598;-79
2023/11/19 06:22:07;;;;;;;0.40;0.40;;;;;;;-145.69;67.18;52272.09;5115156;28;20208;-80
2023/11/19 06:24:33;;;;;;;0.40;0.40;;;;;;;-145.69;67.22;52244.38;5114496;28;20676;-80
2023/11/19 06:27:00;;;;;;;0.30;0.30;;;;;;;-145.69;66.95;52258.22;5112530;28;20198;-80
2023/11/19 06:29:27;;;;;;;0.50;0.40;;;;;;;-145.69;67.13;52293.88;5094316;28;20664;-79
2023/11/19 06:31:54;;;;;;;0.43;0.43;;;;;;;-145.69;67.25;52258.22;5094223;28;20557;-79
2023/11/19 06:34:20;;;;;;;0.40;0.40;;;;;;;-145.69;67.14;52266.16;5094060;28;20201;-80
2023/11/19 06:36:48;;;;;;;0.32;0.32;;;;;;;-145.69;67.39;52250.31;5094423;28;20206;-80
2023/11/19 06:39:14;;;;;;;0.30;0.30;;;;;;;-145.69;66.68;52280.00;5094310;28;20241;-80
2023/11/19 06:41:46;;;;;;;0.30;0.30;;;;;;;-145.69;66.52;52258.22;5093850;28;20210;-80
2023/11/19 06:44:12;;;;;;;0.40;0.40;;;;;;;-145.69;66.80;52293.88;5105251;28;20193;-80
2023/11/19 06:46:40;;;;;;;0.60;0.60;;;;;;;-145.69;66.60;52274.06;5114484;28;20201;-80
2023/11/19 06:49:07;;;;;;;0.50;0.47;;;;;;;-145.69;66.72;52276.06;5114544;28;20218;-81
2023/11/19 06:51:34;;;;;;;0.50;0.50;;;;;;;-145.69;66.82;52283.97;5114450;28;20204;-80
2023/11/19 06:54:01;;;;;;;1.85;0.30;;;;;;;-145.69;66.58;52270.13;5114137;28;20374;-80
2023/11/19 06:56:27;;;;;;;1.13;0.30;;;;;;;-145.69;66.50;52256.25;5114275;28;20284;-80
2023/11/19 06:58:54;;;;;;;0.40;0.40;;;;;;;-145.69;65.98;52218.63;5114276;28;20197;-80
2023/11/19 07:01:21;;;;;;;0.88;0.60;;;;;;;-145.69;65.83;52270.13;5114356;28;20292;-80
2023/11/19 07:03:49;;;;;;;0.88;0.60;;;;;;;-145.69;66.02;52280.00;5114011;28;20198;-80
2023/11/19 07:06:16;;;;;;;0.75;0.50;;;;;;;-145.69;65.25;52285.97;5114126;28;20197;-81
2023/11/19 07:08:44;;;;;;;0.40;0.40;;;;;;;-145.69;65.21;52254.28;5113420;28;20233;-81
2023/11/19 07:11:11;;;;;;;0.50;0.50;;;;;;;-145.69;65.02;52276.06;5114396;28;20194;-80
2023/11/19 07:13:38;;;;;;;0.70;0.70;;;;;;;-145.69;65.31;52278.03;5113334;28;20212;-80
2023/11/19 07:16:05;;;;;;;0.43;0.43;;;;;;;-145.69;65.78;52248.34;5113738;28;20208;-79
2023/11/19 07:18:32;;;;;;;0.60;0.60;;;;;;;-145.69;65.68;52268.13;5113491;28;20212;-79
2023/11/19 07:21:00;;;;;;;0.43;0.43;;;;;;;-145.69;65.29;52252.28;5113956;28;20197;-80
2023/11/19 07:23:27;;;;;;;1.15;0.85;;;;;;;-145.69;65.41;52262.19;5113154;28;20202;-80
2023/11/19 07:25:53;;;;;;;0.95;0.60;;;;;;;-145.69;65.86;52252.28;5113628;28;20198;-80
2023/11/19 07:28:20;;;;;;;1.55;0.75;;;;;;;-145.69;65.64;52240.41;5113513;28;20205;-80
2023/11/19 07:30:46;;;;;;;2.10;0.80;;;;;;;-145.69;65.63;52226.53;5113410;28;20537;-80
2023/11/19 07:33:13;;;;;;;2.13;1.05;;;;;;;-145.69;65.43;52266.16;5113089;28;20225;-80
2023/11/19 07:35:41;;;;;;;0.73;0.50;;;;;;;-145.69;65.25;52268.13;5113443;28;20247;-80
2023/11/19 07:38:09;;;;;;;0.60;0.60;;;;;;;-145.69;64.94;52214.66;5113772;28;20280;-79
2023/11/19 07:40:35;;;;;;;0.63;0.50;;;;;;;-145.69;64.54;52248.34;5113311;28;20231;-79
2023/11/19 07:43:01;;;;;;;0.50;0.50;;;;;;;-145.69;64.56;52238.44;5113109;28;20210;-79
2023/11/19 07:45:28;;;;;;;0.90;0.70;;;;;;;-145.69;64.66;52234.47;5113435;28;20228;-80
2023/11/19 07:47:55;;;;;;;0.90;0.90;;;;;;;-145.69;64.29;52260.22;5113176;28;20208;-80
2023/11/19 07:50:21;;;;;;;1.15;0.90;;;;;;;-145.69;64.34;52262.19;5113394;28;20220;-80
2023/11/19 07:52:48;;;;;;;0.82;0.80;;;;;;;-145.69;64.46;52250.31;5113322;28;20231;-80
2023/11/19 07:55:16;;;;;;;0.95;0.77;;;;;;;-145.69;63.94;52242.38;5113388;28;20204;-80
2023/11/19 07:57:42;;;;;;;0.90;0.80;;;;;;;-145.69;63.51;52252.28;5112783;28;20197;-80
2023/11/19 08:00:12;;;;;;;0.50;0.50;;;;;;;-145.69;63.56;52230.50;5113252;28;20208;-79
2023/11/19 08:02:38;;;;;;;0.57;0.57;;;;;;;-145.69;63.36;52293.88;5112837;28;20189;-80
2023/11/19 08:05:05;;;;;;;0.65;0.65;;;;;;;-145.69;62.84;52258.22;5113210;28;20204;-80
2023/11/19 08:07:32;;;;;;;0.70;0.65;;;;;;;-145.69;63.05;52248.34;5112735;28;20217;-80
2023/11/19 08:09:59;;;;;;;3.60;0.80;;;;;;;-145.69;63.14;52226.53;5112789;28;20201;-80
2023/11/19 08:12:27;;;;;;;8.23;1.38;;;;;;;-145.69;63.07;52234.47;5112704;28;20197;-80
2023/11/19 08:14:54;;;;;;;3.40;1.80;;;;;;;-145.69;63.08;52206.75;5112737;28;20201;-80
2023/11/19 08:17:22;;;;;;;1.42;0.75;;;;;;;-145.69;62.56;52262.19;5113179;28;20194;-80
2023/11/19 08:19:49;;;;;;;0.80;0.50;;;;;;;-145.69;62.40;52208.72;5113210;28;20201;-79
2023/11/19 08:22:17;;;;;;;0.45;0.40;;;;;;;-145.69;62.03;52264.16;5117054;28;20572;-79
2023/11/19 08:24:44;;;;;;;1.77;0.40;;;;;;;-145.69;61.34;52246.34;5117293;28;20201;-79
2023/11/19 08:27:10;;;;;;;0.45;0.45;;;;;;;-145.69;61.35;52230.50;5117534;28;20266;-79
2023/11/19 08:29:38;;;;;;;1.08;0.45;;;;;;;-145.69;60.84;52224.56;5117066;28;20670;-79
2023/11/19 08:32:06;;;;;;;4.05;0.50;;;;;;;-145.69;61.17;52230.50;5117301;28;20201;-79
2023/11/19 08:34:32;;;;;;;0.50;0.50;;;;;;;-145.69;60.89;52236.44;5113702;27;20228;-80
2023/11/19 08:37:00;;;;;;;3.17;1.52;;;;;;;-145.69;61.15;52256.25;5116934;28;20200;-80
2023/11/19 08:39:26;;;;;;;1.75;0.60;;;;;;;-145.69;60.93;52234.47;5116743;28;20205;-80
2023/11/19 08:41:53;;;;;;;2.30;1.08;;;;;;;-145.69;59.83;52236.44;5117109;28;20204;-79
2023/11/19 08:44:20;;;;;;;1.73;0.68;;;;;;;-145.69;60.36;52238.44;5117066;28;20250;-80
2023/11/19 08:46:50;;;;;;;0.45;0.43;;;;;;;-145.69;58.93;52210.72;5116674;28;20288;-79
2023/11/19 08:49:17;;;;;;;1.05;0.63;;;;;;;-145.69;59.53;52157.25;5116741;28;20659;-80
2023/11/19 08:51:44;;;;;;;2.50;1.00;;;;;;;-145.69;60.25;52252.28;5116802;28;20197;-81
2023/11/19 08:54:12;;;;;;;1.77;1.08;;;;;;;-145.69;60.54;52218.63;5116494;28;20715;-80
2023/11/19 08:56:39;;;;;;;3.67;1.60;;;;;;;-145.69;60.15;52246.34;5116859;28;20262;-80
2023/11/19 08:59:05;;;;;;;2.13;1.38;;;;;;;-145.69;60.31;52218.63;5116207;28;20198;-80
2023/11/19 09:01:32;;;;;;;5.82;1.50;;;;;;;-145.69;60.43;52222.59;5116247;28;20205;-80
2023/11/19 09:04:01;;;;;;;0.80;0.75;;;;;;;-145.69;59.66;52218.63;5116555;28;20558;-81
2023/11/19 09:06:28;;;;;;;1.25;0.70;;;;;;;-145.69;60.10;52226.53;5116180;28;20200;-80
2023/11/19 09:08:58;;;;;;;2.25;1.23;;;;;;;-145.69;59.96;52266.16;5116519;28;20197;-80
2023/11/19 09:11:24;;;;;;;0.60;0.60;;;;;;;-145.69;59.65;52246.34;5116624;28;20253;-80
2023/11/19 09:13:51;;;;;;;0.70;0.47;;;;;;;-145.69;59.29;52242.38;5115789;28;20218;-81
2023/11/19 09:16:17;;;;;;;1.33;0.80;;;;;;;-145.69;59.07;52234.47;5116326;28;20209;-81
2023/11/19 09:18:44;;;;;;;1.08;0.45;;;;;;;-145.69;58.82;52218.63;5116104;28;20201;-80
2023/11/19 09:21:13;;;;;;;0.35;0.35;;;;;;;-145.69;58.71;52220.59;5116014;28;20201;-80
2023/11/19 09:23:40;;;;;;;0.30;0.30;;;;;;;-145.69;58.58;52230.50;5116239;28;20254;-81
2023/11/19 09:26:08;;;;;;;0.50;0.50;;;;;;;-145.69;58.27;52198.81;5116358;28;20209;-80
2023/11/19 09:28:36;;;;;;;1.67;0.60;;;;;;;-145.69;57.46;52234.47;5116108;28;20762;-80
2023/11/19 09:31:04;;;;;;;0.82;0.70;;;;;;;-145.69;57.65;52200.81;5115836;28;20221;-80
2023/11/19 09:33:31;;;;;;;4.57;0.50;;;;;;;-145.69;57.60;52246.34;5115287;28;20224;-81
2023/11/19 09:35:57;;;;;;;0.73;0.50;;;;;;;-145.69;56.83;52206.75;5115766;28;20193;-80
2023/11/19 09:38:25;;;;;;;2.53;0.45;;;;;;;-145.69;56.34;52210.72;5115848;28;20220;-80
2023/11/19 09:40:52;;;;;;;0.95;0.50;;;;;;;-145.69;55.84;52204.75;5115706;28;20213;-80
2023/11/19 09:43:18;;;;;;;0.65;0.50;;;;;;;-145.69;56.26;52196.84;5115899;28;20201;-80
2023/11/19 09:45:49;;;;;;;1.17;0.80;;;;;;;-145.69;55.02;52175.06;5115774;28;20543;-80
2023/11/19 09:48:17;;;;;;;0.60;0.52;;;;;;;-145.69;55.37;52214.66;5115139;28;20197;-80
2023/11/19 09:50:45;;;;;;;1.48;0.52;;;;;;;-145.69;54.97;52190.91;5115685;28;20198;-80
2023/11/19 09:53:12;;;;;;;0.52;0.50;;;;;;;-145.69;55.20;52200.81;5115743;28;20205;-80
2023/11/19 09:55:40;;;;;;;0.93;0.47;;;;;;;-145.69;55.30;52190.91;5115628;28;20201;-80
2023/11/19 09:58:07;;;;;;;0.70;0.60;;;;;;;-145.69;54.82;52216.66;5115340;28;20300;-80
2023/11/19 10:00:34;;;;;;;1.23;0.70;;;;;;;-145.69;54.87;52179.03;5114826;28;20641;-81
2023/11/19 10:03:01;;;;;;;0.68;0.50;;;;;;;-145.69;54.58;52194.88;5115365;28;20204;-81
2023/11/19 10:05:28;;;;;;;0.30;0.30;;;;;;;-145.69;54.17;52204.75;5115364;28;20208;-80
2023/11/19 10:07:55;;;;;;;0.30;0.30;;;;;;;-145.69;54.18;52161.19;5115304;28;20335;-82
2023/11/19 10:10:22;;;;;;;2.35;0.40;;;;;;;-145.69;53.67;52192.88;5114671;28;20215;-80
2023/11/19 10:12:52;;;;;;;1.88;1.10;;;;;;;-145.69;52.66;52206.75;5115097;28;20200;-81
2023/11/19 10:15:22;;;;;;;0.60;0.50;;;;;;;-145.69;52.64;52157.25;5114668;28;20234;-81
2023/11/19 10:17:48;;;;;;;0.75;0.50;;;;;;;-145.69;52.72;52198.81;5115281;28;20255;-81
2023/11/19 10:20:15;;;;;;;0.40;0.40;;;;;;;-145.69;52.77;52198.81;5115259;28;20201;-80
2023/11/19 10:22:41;;;;;;;1.05;0.40;;;;;;;-145.69;51.81;52173.09;5115071;28;20200;-80
2023/11/19 10:25:24;;;;;;;0.30;0.30;;;;;;;-145.69;52.01;52196.84;5114603;28;20207;-81
2023/11/19 10:27:52;;;;;;;0.30;0.30;;;;;;;-145.69;52.04;52167.13;5114622;28;20607;-82
2023/11/19 10:30:19;;;;;;;0.30;0.20;;;;;;;-145.69;51.80;52184.97;5114899;28;20591;-80
2023/11/19 10:32:45;;;;;;;0.77;0.50;;;;;;;-145.69;50.96;52167.13;5114775;27;20233;-80
2023/11/19 10:35:13;;;;;;;0.77;0.30;;;;;;;-145.69;51.93;52194.88;5113461;28;20447;-81
2023/11/19 10:37:40;;;;;;;0.40;0.40;;;;;;;-145.69;51.48;52153.28;5114881;28;20200;-81
2023/11/19 10:40:10;;;;;;;0.60;0.40;;;;;;;-145.69;50.87;52198.81;5114611;28;20320;-80
2023/11/19 10:42:36;;;;;;;2.25;1.23;;;;;;;-145.69;50.64;52196.84;5114621;28;20614;-80
2023/11/19 10:45:05;;;;;;;1.27;0.73;;;;;;;-145.69;50.21;52145.34;5092951;28;20194;-80
2023/11/19 10:47:34;;;;;;;0.95;0.52;;;;;;;-145.69;50.44;52175.06;5094409;28;20736;-81
2023/11/19 10:50:00;;;;;;;4.97;1.23;;;;;;;-145.69;50.97;52210.72;5094217;28;20197;-80
2023/11/19 10:52:28;;;;;;;1.83;0.68;;;;;;;-145.69;50.85;52194.88;5093720;28;20205;-80
2023/11/19 10:55:01;;;;;;;0.60;0.60;;;;;;;-145.69;50.49;52167.13;5093954;28;20245;-80
2023/11/19 10:57:32;;;;;;;1.02;0.43;;;;;;;-145.69;50.70;52157.25;5104838;28;20208;-80
2023/11/19 11:00:10;;;;;;;1.27;0.50;;;;;;;-145.69;51.38;52159.22;5114116;28;20631;-81
2023/11/19 11:02:41;;;;;;;0.90;0.50;;;;;;;-145.69;51.15;52192.88;5114315;28;20318;-80
2023/11/19 11:05:09;;;;;;;2.90;1.00;;;;;;;-145.69;50.82;52186.94;5113710;28;20186;-81
2023/11/19 11:07:36;;;;;;;2.30;1.35;;;;;;;-145.69;50.87;52179.03;5113860;28;20232;-80
2023/11/19 11:10:03;;;;;;;1.58;0.98;;;;;;;-145.69;50.67;52159.22;5114123;28;20233;-80
2023/11/19 11:12:33;;;;;;;1.92;0.93;;;;;;;-145.69;50.73;52155.25;5113971;28;20223;-81
2023/11/19 11:15:01;;;;;;;0.90;0.60;;;;;;;-145.69;50.92;52165.16;5114011;28;20229;-81
2023/11/19 11:17:32;;;;;;;1.00;0.50;;;;;;;-145.69;51.85;52177.03;5114091;28;20212;-80